Millenium Air

Millenium Air Since 1998



 METAR AND TAF INFORMATION
METAR FOR LEZL
ADDS - METARS form results

(0114 UTC 27 February 2021)
Data provider http://aviationweather.gov/metar/data/
 
METAR text: LEZL 270100Z AUTO 10002KT CAVOK 10/08 Q1024
Conditions at: LEZL (SEVILLA (CIV/MIL, ES) observed 0100 UTC 27 February 2021
Temperature: 10.0°C (50°F)
Dewpoint: 8.0°C (46°F) [RH = 87%]
Pressure (altimeter): 30.24 inches Hg (1024.0 mb)
Winds: from the E (100 degrees) at 2 MPH (2 knots; 1.0 m/s)
Visibility: 6 or more miles (10+ km)
Ceiling: ceiling and visibility are OK
Clouds: unknown
Weather: no significant weather observed at this time

METAR text: LEZL 270030Z AUTO 00000KT CAVOK 10/08 Q1024
Conditions at: LEZL (SEVILLA (CIV/MIL, ES) observed 0030 UTC 27 February 2021
Temperature: 10.0°C (50°F)
Dewpoint: 8.0°C (46°F) [RH = 87%]
Pressure (altimeter): 30.24 inches Hg (1024.0 mb)
Winds: calm
Visibility: 6 or more miles (10+ km)
Ceiling: ceiling and visibility are OK
Clouds: unknown
Weather: no significant weather observed at this time

Forecast for: LEZL (SEVILLA (CIV/MIL, ES)
Text: TAF LEZL 262000Z 2621/2721 23003KT 9999 FEW040 TX18/2715Z TN09/2707Z
Forecast period: 2100 UTC 26 February 2021 to 0600 UTC 27 February 2021
Forecast type: FROM: standard forecast or significant change
Winds: from the SW (230 degrees) at 3 MPH (3 knots; 1.5 m/s)
Visibility: 6 or more miles (10+ km)
Ceiling: at least 12,000 feet AGL
Clouds: few clouds at 4000 feet AGL
Weather: no significant weather forecast for this period
Text: PROB30
Forecast period: 0300 to 0800 UTC 27 February 2021
Forecast type: TEMPORARY: The following changes expected for less than half the time period
Visibility: 2.49 miles (4.01 km)
Ceiling: 1000 feet AGL
Clouds: broken clouds at 1000 feet AGL
Weather: BR  (mist)
Text: TEMPO 2703/2708 4000 BR BKN010
Forecast period: 0600 to 2100 UTC 27 February 2021
Forecast type: BECOMING: Conditions expected to become as follows by 0900 UTC 27 February 2021
Winds: from the ENE (70 degrees) at 12 MPH (10 knots; 5.1 m/s)
Visibility: 6 or more miles (10+ km)
Ceiling: at least 12,000 feet AGL
Clouds: few clouds at 4000 feet AGL
Weather: no significant weather forecast for this period

 AIRPORT MAP

 RUNWAY INFORMATION
Runway 09 Runway length 11024 ft Runway width 148 ft
Runway elevation 83 ft Runway displaced threshold 0 ft Runway heading 90
Runway 27 Runway length 11024 ft Runway width 148 ft
Runway elevation 111 ft Runway displaced threshold 0 ft Runway heading 270

 AIRPORT FREQUENCIES
Type APP Name APP Frequency 120 MHZ
Type ATIS Name ATIS Frequency 118.175 MHZ
Type GND Name GND Frequency 121.7 MHZ
Type TWR Name TWR Frequency 118.1 MHZ

 AIRPORT NEAR NAVIGATION AIDS
Type NDB Name Sevilla Frequency 420 KHZ
Type VOR-DME Name Sevilla Frequency 113700 KHZ